Terminal Aerodrome Forecast
Issued by NWS Wakefield, VA

Home | Current Version | Previous Version | Text Only | Print | Product List | Glossary On
Versions: 1 2 3 4 5 6 7 8 9 10 11 12 13 14 15 16 17 18 19 20
356
FTUS41 KAKQ 091408 AAA
TAFECG
TAF AMD
KECG 091408Z 0914/1012 27011KT P6SM BKN008
      TEMPO 0914/0916 P6SM SCT008 OVC040
     FM091600 26013G20KT P6SM BKN050
     FM100000 25010KT P6SM SCT050=

USA.gov is the U.S. government's official web portal to all federal, state and local government web resources and services.